Time;durP1;ratioP1;P1;durP2;ratioP2;P2;SDS_P1;SDS_P2;PMS_P1;PMS_P2;Temp;Humidity;BMP_temperature;BMP_pressure;BME280_temperature;BME280_humidity;BME280_pressure;Samples;Min_cycle;Max_cycle;Signal;HPM_P1;HPM_P2
2023/08/30 00:00:17;;;;;;;7.50;4.40;;;14.20;99.90;;;;;;5012696;28;20029;-51
2023/08/30 00:02:44;;;;;;;8.18;4.45;;;14.20;99.90;;;;;;5012705;28;20048;-52
2023/08/30 00:05:10;;;;;;;10.38;4.80;;;14.20;99.90;;;;;;5013245;28;20048;-50
2023/08/30 00:07:35;;;;;;;8.27;4.47;;;14.10;99.90;;;;;;5012809;28;20035;-52
2023/08/30 00:10:02;;;;;;;7.55;3.75;;;14.00;99.90;;;;;;5012396;28;20544;-50
2023/08/30 00:12:27;;;;;;;13.82;4.55;;;13.90;99.90;;;;;;5013020;28;20065;-49
2023/08/30 00:14:54;;;;;;;9.20;4.25;;;13.80;99.90;;;;;;5012837;28;20065;-48
2023/08/30 00:17:20;;;;;;;7.15;3.65;;;13.70;99.90;;;;;;5012750;28;20371;-51
2023/08/30 00:19:46;;;;;;;7.68;4.13;;;13.70;99.90;;;;;;5012651;28;20080;-53
2023/08/30 00:22:12;;;;;;;7.50;4.07;;;13.70;99.90;;;;;;4994722;28;20088;-53
2023/08/30 00:24:38;;;;;;;7.30;4.15;;;13.70;99.90;;;;;;5012346;28;20030;-51
2023/08/30 00:27:04;;;;;;;8.15;4.28;;;13.70;99.90;;;;;;5012748;28;20429;-54
2023/08/30 00:29:30;;;;;;;9.20;4.32;;;13.60;99.90;;;;;;5012424;28;20037;-50
2023/08/30 00:31:56;;;;;;;8.93;4.43;;;13.50;99.90;;;;;;5012433;28;20439;-54
2023/08/30 00:34:22;;;;;;;8.63;4.30;;;13.50;99.90;;;;;;5010853;28;20092;-53
2023/08/30 00:36:47;;;;;;;12.32;5.03;;;13.50;99.90;;;;;;5012314;28;20329;-50
2023/08/30 00:39:13;;;;;;;6.70;3.58;;;13.40;99.90;;;;;;5011439;28;20113;-52
2023/08/30 00:41:39;;;;;;;8.55;4.45;;;13.40;99.90;;;;;;5012082;28;20129;-51
2023/08/30 00:44:05;;;;;;;8.98;4.95;;;13.30;99.90;;;;;;5012354;28;20073;-52
2023/08/30 00:46:33;;;;;;;7.85;4.20;;;13.30;99.90;;;;;;5012540;28;20029;-54
2023/08/30 00:49:02;;;;;;;8.25;5.07;;;13.30;99.90;;;;;;4994422;28;20051;-53
2023/08/30 00:51:29;;;;;;;9.55;4.40;;;13.30;99.90;;;;;;5011871;28;20121;-49
2023/08/30 00:53:55;;;;;;;11.23;4.85;;;13.30;99.90;;;;;;5012084;28;20083;-50
2023/08/30 00:56:21;;;;;;;8.18;4.40;;;13.30;99.90;;;;;;5011943;28;20037;-51
2023/08/30 00:58:50;;;;;;;9.02;4.63;;;13.40;99.90;;;;;;4994290;28;20053;-53
2023/08/30 01:01:17;;;;;;;8.20;4.70;;;13.30;99.90;;;;;;5011875;28;20533;-50
2023/08/30 01:03:42;;;;;;;9.02;4.88;;;13.30;99.90;;;;;;5011680;28;20108;-53
2023/08/30 01:06:08;;;;;;;10.38;5.10;;;13.20;99.90;;;;;;5011939;28;20073;-50
2023/08/30 01:08:37;;;;;;;9.60;4.30;;;13.10;99.90;;;;;;5010282;28;20379;-54
2023/08/30 01:11:24;;;;;;;8.75;4.95;;;13.00;99.90;;;;;;4994318;28;20513;-53
2023/08/30 01:13:56;;;;;;;9.30;5.35;;;13.00;99.90;;;;;;4994321;28;20033;-53
2023/08/30 01:16:24;;;;;;;10.38;5.28;;;13.00;99.90;;;;;;5011675;28;20044;-50
2023/08/30 01:18:56;;;;;;;10.07;5.03;;;12.90;99.90;;;;;;5010213;28;20305;-51
2023/08/30 01:21:54;;;;;;;11.68;5.90;;;12.90;99.90;;;;;;4977489;28;20549;-50
2023/08/30 01:24:45;;;;;;;14.20;5.10;;;12.90;99.90;;;;;;4989653;28;20046;-51
2023/08/30 01:27:12;;;;;;;11.18;6.10;;;12.90;99.90;;;;;;4994183;28;20498;-51
2023/08/30 01:29:42;;;;;;;11.98;5.75;;;12.80;99.90;;;;;;5010326;28;20053;-51
2023/08/30 01:32:09;;;;;;;11.25;5.95;;;12.80;99.90;;;;;;4993516;28;20479;-52
2023/08/30 01:34:37;;;;;;;10.82;5.82;;;12.80;99.90;;;;;;5010143;28;20034;-51
2023/08/30 01:37:10;;;;;;;12.67;6.13;;;12.70;99.90;;;;;;5011545;28;20029;-52
2023/08/30 01:39:41;;;;;;;13.18;6.60;;;12.70;99.90;;;;;;5011285;28;20037;-53
2023/08/30 01:42:08;;;;;;;12.13;6.97;;;12.70;99.90;;;;;;5011283;28;20029;-54
2023/08/30 01:44:34;;;;;;;15.90;7.38;;;12.70;99.90;;;;;;5011251;28;20310;-49
2023/08/30 01:47:00;;;;;;;12.60;6.78;;;12.70;99.90;;;;;;5010522;28;20037;-53
2023/08/30 01:49:32;;;;;;;15.07;7.75;;;12.70;99.90;;;;;;4994519;28;20538;-53
2023/08/30 01:51:58;;;;;;;11.70;6.75;;;12.70;99.90;;;;;;5014337;28;20030;-52
2023/08/30 01:54:25;;;;;;;13.77;7.88;;;12.70;99.90;;;;;;4997670;28;20034;-54
2023/08/30 01:56:50;;;;;;;14.70;7.25;;;12.70;99.90;;;;;;4997597;28;20037;-52
2023/08/30 01:59:16;;;;;;;13.50;7.72;;;12.80;99.90;;;;;;5013879;28;20285;-52
2023/08/30 02:01:42;;;;;;;14.52;8.05;;;12.70;99.90;;;;;;5013839;28;20030;-52
2023/08/30 02:04:07;;;;;;;14.55;7.53;;;12.70;99.90;;;;;;4997282;28;20117;-54
2023/08/30 02:06:48;;;;;;;16.38;8.63;;;12.80;99.90;;;;;;5015465;28;20034;-53
2023/08/30 02:09:32;;;;;;;17.67;8.52;;;12.80;99.90;;;;;;5013399;28;20475;-54
2023/08/30 02:12:03;;;;;;;16.13;8.32;;;12.70;99.90;;;;;;5015017;28;20482;-53
2023/08/30 02:14:30;;;;;;;16.10;8.18;;;12.70;99.90;;;;;;5014727;28;20030;-50
2023/08/30 02:16:56;;;;;;;17.00;8.60;;;12.80;99.90;;;;;;4997019;28;20117;-50
2023/08/30 02:19:22;;;;;;;17.25;8.27;;;12.80;99.90;;;;;;5013331;28;20088;-51
2023/08/30 02:21:49;;;;;;;13.50;8.02;;;12.80;99.90;;;;;;5013200;28;20504;-50
2023/08/30 02:24:17;;;;;;;15.60;8.27;;;12.80;99.90;;;;;;5013397;28;20032;-49
2023/08/30 02:26:43;;;;;;;16.75;8.00;;;12.80;99.90;;;;;;5014702;28;20030;-53
2023/08/30 02:29:09;;;;;;;15.73;8.13;;;12.70;99.90;;;;;;5014376;28;20569;-53
2023/08/30 02:31:37;;;;;;;15.25;7.97;;;12.70;99.90;;;;;;5014502;28;20034;-51
2023/08/30 02:34:02;;;;;;;17.10;8.43;;;12.70;99.90;;;;;;5013075;28;20033;-51
2023/08/30 02:36:29;;;;;;;17.35;8.05;;;12.70;99.90;;;;;;5014614;28;20367;-53
2023/08/30 02:38:56;;;;;;;17.27;9.20;;;12.60;99.90;;;;;;4980756;28;20022;-49
2023/08/30 02:41:21;;;;;;;16.15;8.27;;;12.70;99.90;;;;;;5014469;28;20040;-50
2023/08/30 02:43:47;;;;;;;17.65;8.70;;;12.70;99.90;;;;;;5012842;28;20022;-54
2023/08/30 02:46:13;;;;;;;17.15;9.75;;;12.70;99.90;;;;;;5013026;28;20034;-53
2023/08/30 02:48:39;;;;;;;17.02;9.07;;;12.60;99.90;;;;;;5012796;28;20414;-51
2023/08/30 02:51:07;;;;;;;17.25;9.27;;;12.60;99.90;;;;;;5012839;28;20038;-51
2023/08/30 02:53:32;;;;;;;14.95;8.70;;;12.60;99.90;;;;;;5013759;28;20489;-54
2023/08/30 02:55:58;;;;;;;16.80;9.18;;;12.70;99.90;;;;;;5014338;28;20025;-53
2023/08/30 02:58:24;;;;;;;19.42;9.35;;;12.70;99.90;;;;;;5012885;28;20510;-52
2023/08/30 03:00:53;;;;;;;17.52;8.45;;;12.70;99.90;;;;;;5011955;28;20034;-50
2023/08/30 03:03:18;;;;;;;20.42;10.00;;;12.70;99.90;;;;;;5013505;28;20393;-50
2023/08/30 03:05:44;;;;;;;17.63;9.30;;;12.70;99.90;;;;;;4996470;28;20109;-53
2023/08/30 03:08:10;;;;;;;17.70;9.23;;;12.60;99.90;;;;;;4996252;28;20026;-54
2023/08/30 03:10:35;;;;;;;19.52;9.38;;;12.60;99.90;;;;;;5013752;28;20491;-51
2023/08/30 03:13:01;;;;;;;20.95;9.15;;;12.60;99.90;;;;;;5012188;28;20395;-51
2023/08/30 03:15:27;;;;;;;22.05;10.10;;;12.50;99.90;;;;;;5013736;28;20032;-51
2023/08/30 03:17:52;;;;;;;17.08;8.77;;;12.50;99.90;;;;;;5013737;28;20479;-52
2023/08/30 03:20:18;;;;;;;18.90;10.10;;;12.50;99.90;;;;;;5012385;28;20030;-54
2023/08/30 03:22:44;;;;;;;20.35;9.35;;;12.50;99.90;;;;;;5029502;28;20474;-52
2023/08/30 03:25:10;;;;;;;18.27;9.88;;;12.40;99.90;;;;;;5015850;28;20118;-52
2023/08/30 03:27:35;;;;;;;20.65;9.35;;;12.40;99.90;;;;;;5033367;28;20075;-52
2023/08/30 03:30:03;;;;;;;19.00;9.85;;;12.40;99.90;;;;;;5015307;28;20033;-50
2023/08/30 03:32:32;;;;;;;22.10;9.77;;;12.30;99.90;;;;;;5015553;28;20025;-50
2023/08/30 03:34:59;;;;;;;18.85;9.75;;;12.30;99.90;;;;;;5033160;28;20025;-51
2023/08/30 03:37:24;;;;;;;18.70;9.25;;;12.30;99.90;;;;;;5015387;28;20668;-52
2023/08/30 03:39:50;;;;;;;18.40;9.27;;;12.30;99.90;;;;;;5015259;28;20034;-51
2023/08/30 03:42:15;;;;;;;21.33;10.63;;;12.30;99.90;;;;;;5015192;28;20100;-52
2023/08/30 03:44:41;;;;;;;19.60;9.55;;;12.30;99.90;;;;;;4999210;28;20437;-51
2023/08/30 03:47:07;;;;;;;18.10;9.57;;;12.30;99.90;;;;;;5013980;28;20038;-54
2023/08/30 03:49:33;;;;;;;20.00;9.70;;;12.30;99.90;;;;;;4996164;28;20113;-51
2023/08/30 03:51:58;;;;;;;18.33;9.82;;;12.30;99.90;;;;;;5013548;28;20462;-49
2023/08/30 03:54:24;;;;;;;19.13;9.63;;;12.30;99.90;;;;;;4995738;28;20099;-54
2023/08/30 03:56:51;;;;;;;18.95;9.13;;;12.30;99.90;;;;;;4995809;28;20053;-53
2023/08/30 03:59:17;;;;;;;21.25;9.63;;;12.30;99.90;;;;;;4995866;28;20033;-52
2023/08/30 04:01:43;;;;;;;21.10;9.88;;;12.30;99.90;;;;;;4995727;28;20387;-51
2023/08/30 04:04:10;;;;;;;20.58;10.07;;;12.20;99.90;;;;;;4995795;28;20112;-51
2023/08/30 04:06:35;;;;;;;22.13;11.00;;;12.20;99.90;;;;;;5013415;28;20121;-50
2023/08/30 04:09:01;;;;;;;19.95;10.43;;;12.30;99.90;;;;;;4995394;28;20037;-53
2023/08/30 04:11:27;;;;;;;17.98;9.55;;;12.40;99.90;;;;;;4995417;28;20029;-53
2023/08/30 04:13:52;;;;;;;20.58;9.70;;;12.30;99.90;;;;;;4995106;28;20420;-52
2023/08/30 04:16:18;;;;;;;19.52;9.43;;;12.30;99.90;;;;;;4995702;28;20061;-49
2023/08/30 04:18:44;;;;;;;19.63;9.70;;;12.30;99.90;;;;;;4995115;28;20491;-52
2023/08/30 04:21:11;;;;;;;17.98;9.68;;;12.30;99.90;;;;;;5013010;28;20060;-52
2023/08/30 04:23:37;;;;;;;21.45;10.50;;;12.30;99.90;;;;;;5012967;28;20101;-51
2023/08/30 04:26:04;;;;;;;20.75;11.13;;;12.20;99.90;;;;;;4994967;28;20069;-52
2023/08/30 04:28:29;;;;;;;23.60;10.43;;;12.20;99.90;;;;;;4995209;28;20549;-54
2023/08/30 04:30:56;;;;;;;21.50;10.80;;;12.20;99.90;;;;;;4994564;28;20434;-50
2023/08/30 04:33:23;;;;;;;19.95;10.80;;;12.30;99.90;;;;;;4994618;28;20080;-54
2023/08/30 04:35:54;;;;;;;22.70;11.15;;;12.30;99.90;;;;;;5012678;28;20040;-52
2023/08/30 04:38:20;;;;;;;23.83;12.35;;;12.30;99.90;;;;;;4995108;28;20029;-49
2023/08/30 04:40:47;;;;;;;28.63;11.70;;;12.30;99.90;;;;;;4995258;28;20126;-51
2023/08/30 04:43:14;;;;;;;22.85;11.52;;;12.40;99.90;;;;;;4994584;28;20036;-53
2023/08/30 04:45:40;;;;;;;22.13;10.98;;;12.50;99.90;;;;;;4995215;28;20033;-54
2023/08/30 04:48:07;;;;;;;24.90;12.38;;;12.50;99.90;;;;;;4995510;28;20052;-49
2023/08/30 04:50:33;;;;;;;22.30;11.80;;;12.60;99.90;;;;;;4995121;28;20504;-52
2023/08/30 04:52:59;;;;;;;26.83;12.60;;;12.60;99.90;;;;;;4995219;28;20034;-52
2023/08/30 04:55:28;;;;;;;23.25;11.75;;;12.60;99.90;;;;;;4994622;28;20030;-53
2023/08/30 04:57:53;;;;;;;23.92;11.88;;;12.70;99.90;;;;;;4995143;28;20026;-51
2023/08/30 05:00:19;;;;;;;23.38;10.63;;;12.70;99.90;;;;;;4994064;28;20034;-53
2023/08/30 05:02:46;;;;;;;21.90;11.20;;;12.70;99.90;;;;;;5011893;28;20029;-52
2023/08/30 05:05:13;;;;;;;22.75;11.63;;;12.70;99.90;;;;;;4994469;28;20053;-54
2023/08/30 05:07:39;;;;;;;23.25;11.77;;;12.70;99.90;;;;;;4994284;28;20034;-55
2023/08/30 05:10:06;;;;;;;23.30;12.15;;;12.80;99.90;;;;;;4994581;28;20057;-53
2023/08/30 05:12:36;;;;;;;23.27;12.68;;;12.80;99.90;;;;;;4994073;28;20048;-54
2023/08/30 05:15:03;;;;;;;25.15;13.13;;;12.80;99.90;;;;;;4994498;28;20041;-53
2023/08/30 05:17:29;;;;;;;29.13;13.02;;;12.90;99.90;;;;;;4994405;28;20034;-51
2023/08/30 05:19:56;;;;;;;23.40;12.35;;;12.90;99.90;;;;;;4994179;28;20053;-54
2023/08/30 05:22:22;;;;;;;24.15;12.52;;;12.90;99.90;;;;;;4994146;28;20061;-51
2023/08/30 05:24:47;;;;;;;26.75;13.50;;;12.90;99.90;;;;;;4993978;28;20451;-54
2023/08/30 05:27:14;;;;;;;30.08;14.43;;;13.00;99.90;;;;;;4994551;28;20029;-54
2023/08/30 05:29:40;;;;;;;29.63;13.82;;;13.10;99.90;;;;;;4994607;28;20391;-54
2023/08/30 05:32:06;;;;;;;25.42;12.63;;;13.00;99.90;;;;;;4994685;28;20084;-54
2023/08/30 05:34:45;;;;;;;;;;;13.00;99.90;;;;;;4995166;28;20093;-52
2023/08/30 05:37:29;;;;;;;26.73;13.25;;;13.10;99.90;;;;;;5012087;28;19919;-48
2023/08/30 05:40:04;;;;;;;28.83;13.82;;;13.10;99.90;;;;;;4994101;28;20030;-51
2023/08/30 05:42:30;;;;;;;27.90;13.45;;;13.20;99.90;;;;;;4994105;28;20355;-51
2023/08/30 05:44:55;;;;;;;24.95;12.60;;;13.20;99.90;;;;;;4994355;28;20391;-53
2023/08/30 05:47:21;;;;;;;25.95;13.35;;;13.30;99.90;;;;;;5011663;28;20033;-54
2023/08/30 05:49:47;;;;;;;25.05;12.50;;;13.30;99.90;;;;;;4993743;28;20022;-54
2023/08/30 05:52:18;;;;;;;26.15;13.60;;;13.40;99.90;;;;;;4994044;28;20438;-53
2023/08/30 05:54:44;;;;;;;23.27;12.63;;;13.40;99.90;;;;;;4994073;28;20028;-49
2023/08/30 05:57:10;;;;;;;27.63;13.02;;;13.40;99.90;;;;;;4994308;28;20030;-49
2023/08/30 05:59:36;;;;;;;26.98;13.32;;;13.50;99.90;;;;;;4993905;28;20518;-51
2023/08/30 06:02:02;;;;;;;24.98;12.95;;;13.50;99.90;;;;;;5011246;28;20073;-53
2023/08/30 06:04:27;;;;;;;26.95;12.55;;;13.60;99.90;;;;;;5011594;28;20026;-48
2023/08/30 06:06:53;;;;;;;24.83;12.18;;;13.70;99.90;;;;;;5011345;28;20096;-52
2023/08/30 06:09:19;;;;;;;24.98;11.70;;;13.70;99.90;;;;;;5011744;28;20088;-49
2023/08/30 06:11:44;;;;;;;25.08;13.15;;;13.80;99.90;;;;;;5011355;28;20113;-52
2023/08/30 06:14:10;;;;;;;23.33;12.38;;;13.80;99.90;;;;;;5011358;28;20125;-48
2023/08/30 06:16:35;;;;;;;25.90;12.45;;;13.90;99.90;;;;;;5012482;28;20083;-53
2023/08/30 06:19:02;;;;;;;23.10;12.80;;;14.00;99.90;;;;;;5014420;28;20038;-51
2023/08/30 06:21:27;;;;;;;25.02;13.15;;;14.00;99.90;;;;;;5014730;28;20034;-51
2023/08/30 06:23:53;;;;;;;24.13;12.88;;;14.20;99.90;;;;;;5014287;28;20026;-50
2023/08/30 06:26:19;;;;;;;24.73;12.25;;;14.30;99.90;;;;;;5015781;28;20029;-54
2023/08/30 06:28:45;;;;;;;22.30;12.25;;;14.40;99.90;;;;;;5013439;28;20037;-53
2023/08/30 06:31:10;;;;;;;22.38;12.05;;;14.40;99.90;;;;;;5014454;28;20125;-53
2023/08/30 06:33:37;;;;;;;23.10;12.77;;;14.50;99.90;;;;;;5014286;28;20080;-53
2023/08/30 06:36:03;;;;;;;22.90;12.75;;;14.60;99.90;;;;;;4996707;28;20450;-51
2023/08/30 06:38:29;;;;;;;23.38;12.32;;;14.70;99.90;;;;;;5019099;28;20029;-51
2023/08/30 06:40:57;;;;;;;24.63;12.45;;;14.80;99.90;;;;;;5020441;28;20026;-52
2023/08/30 06:43:23;;;;;;;20.42;11.93;;;14.90;99.90;;;;;;5019043;28;20034;-52
2023/08/30 06:45:49;;;;;;;21.25;12.07;;;14.90;99.90;;;;;;5017678;28;20026;-50
2023/08/30 06:48:14;;;;;;;38.97;18.25;;;15.10;99.90;;;;;;4997006;28;20038;-52
2023/08/30 06:50:40;;;;;;;23.10;13.18;;;15.10;99.90;;;;;;5015327;28;20034;-50
2023/08/30 06:53:05;;;;;;;22.92;11.35;;;15.20;99.90;;;;;;5014250;28;20033;-53
2023/08/30 06:55:35;;;;;;;20.85;12.30;;;15.30;99.90;;;;;;5013752;28;20192;-52
2023/08/30 06:58:01;;;;;;;20.15;12.77;;;15.40;99.90;;;;;;5013827;28;20364;-52
2023/08/30 07:00:27;;;;;;;19.63;11.02;;;15.50;99.90;;;;;;5014049;28;20033;-53
2023/08/30 07:02:52;;;;;;;18.98;10.45;;;15.60;99.90;;;;;;5013241;28;20033;-50
2023/08/30 07:05:18;;;;;;;20.50;10.20;;;15.70;99.90;;;;;;5013124;28;20041;-51
2023/08/30 07:07:44;;;;;;;20.67;10.20;;;15.70;99.90;;;;;;5013287;28;20038;-52
2023/08/30 07:10:09;;;;;;;17.77;10.27;;;15.70;99.90;;;;;;5013105;28;20041;-48
2023/08/30 07:12:35;;;;;;;20.13;10.23;;;15.70;99.90;;;;;;5013448;28;20363;-48
2023/08/30 07:15:03;;;;;;;20.20;10.27;;;15.80;99.90;;;;;;5013138;28;20416;-51
2023/08/30 07:17:28;;;;;;;19.38;10.18;;;15.80;99.90;;;;;;5013370;28;20038;-49
2023/08/30 07:19:54;;;;;;;14.32;9.02;;;15.90;99.90;;;;;;5013162;28;20463;-47
2023/08/30 07:22:19;;;;;;;16.23;9.27;;;16.00;99.90;;;;;;5013006;28;20030;-50
2023/08/30 07:24:45;;;;;;;15.52;8.85;;;16.10;99.90;;;;;;5013002;28;20029;-47
2023/08/30 07:27:14;;;;;;;13.82;8.40;;;16.20;99.90;;;;;;5012931;28;20087;-48
2023/08/30 07:29:40;;;;;;;15.60;8.60;;;16.30;99.90;;;;;;5012791;28;20044;-49
2023/08/30 07:32:09;;;;;;;14.18;8.30;;;16.30;99.90;;;;;;5012671;28;20112;-51
2023/08/30 07:34:35;;;;;;;19.58;9.70;;;16.40;99.90;;;;;;5012804;28;20034;-50
2023/08/30 07:37:01;;;;;;;17.73;8.48;;;16.60;99.90;;;;;;5018888;28;20060;-50
2023/08/30 07:39:27;;;;;;;18.27;10.60;;;16.70;99.90;;;;;;5030480;28;20048;-53
2023/08/30 07:41:53;;;;;;;12.70;6.80;;;16.80;99.90;;;;;;5030794;28;20025;-53
2023/08/30 07:44:20;;;;;;;13.55;7.03;;;16.90;99.90;;;;;;5032536;28;20022;-50
2023/08/30 07:46:46;;;;;;;10.25;5.95;;;17.10;99.90;;;;;;5031538;28;20087;-54
2023/08/30 07:49:11;;;;;;;10.70;6.43;;;17.20;99.90;;;;;;5031186;28;20025;-51
2023/08/30 07:51:37;;;;;;;10.40;6.60;;;17.30;99.90;;;;;;5032229;28;20029;-52
2023/08/30 07:54:03;;;;;;;12.93;5.80;;;17.40;99.90;;;;;;5032184;28;20060;-50
2023/08/30 07:56:29;;;;;;;11.05;5.55;;;17.40;99.90;;;;;;5032102;28;20072;-51
2023/08/30 07:58:54;;;;;;;11.43;5.75;;;17.40;99.90;;;;;;5032126;28;20049;-51
2023/08/30 08:01:20;;;;;;;9.38;5.40;;;17.50;99.90;;;;;;5031990;28;20036;-52
2023/08/30 08:03:55;;;;;;;10.80;5.43;;;17.60;99.90;;;;;;5020333;28;20018;-51
2023/08/30 08:06:22;;;;;;;9.52;5.55;;;17.70;99.90;;;;;;5022441;28;20498;-49
2023/08/30 08:08:48;;;;;;;9.15;5.53;;;17.90;99.90;;;;;;5018913;28;20117;-53
2023/08/30 08:11:13;;;;;;;9.38;5.18;;;17.90;99.90;;;;;;5016317;28;20038;-53
2023/08/30 08:13:39;;;;;;;9.38;5.35;;;18.00;99.90;;;;;;5020139;28;20029;-48
2023/08/30 08:16:04;;;;;;;10.82;5.68;;;18.00;99.90;;;;;;5014163;28;20127;-50
2023/08/30 08:18:30;;;;;;;9.85;5.03;;;18.10;99.90;;;;;;5012047;28;20044;-50
2023/08/30 08:20:56;;;;;;;8.43;4.70;;;18.10;99.90;;;;;;5020261;28;20573;-52
2023/08/30 08:23:21;;;;;;;8.57;4.85;;;18.10;99.90;;;;;;5017272;28;20029;-51
2023/08/30 08:25:47;;;;;;;11.32;4.32;;;18.30;99.90;;;;;;5019218;28;20394;-51
2023/08/30 08:28:12;;;;;;;6.90;3.78;;;18.30;99.90;;;;;;5017638;28;20041;-52
2023/08/30 08:30:38;;;;;;;6.20;3.42;;;18.40;99.90;;;;;;5027953;28;20061;-51
2023/08/30 08:33:04;;;;;;;5.53;2.83;;;18.40;99.90;;;;;;5021277;28;20135;-55
2023/08/30 08:35:29;;;;;;;4.78;2.92;;;18.50;99.90;;;;;;5008319;28;20209;-52
2023/08/30 08:37:55;;;;;;;6.45;3.35;;;18.60;99.90;;;;;;5008363;28;20089;-51
2023/08/30 08:40:21;;;;;;;4.93;2.83;;;18.70;99.90;;;;;;5020663;28;20040;-52
2023/08/30 08:42:50;;;;;;;7.38;3.35;;;18.80;99.90;;;;;;5019999;28;20112;-52
2023/08/30 08:45:17;;;;;;;7.28;2.80;;;18.90;99.90;;;;;;5019178;28;20787;-53
2023/08/30 08:47:45;;;;;;;6.75;3.47;;;19.00;99.90;;;;;;5023424;28;20029;-55
2023/08/30 08:50:10;;;;;;;8.20;3.63;;;19.00;99.90;;;;;;5010445;28;20033;-50
2023/08/30 08:52:36;;;;;;;8.23;4.25;;;19.00;99.90;;;;;;5016685;28;20171;-54
2023/08/30 08:55:02;;;;;;;5.97;2.90;;;19.10;99.90;;;;;;5017685;28;20040;-54
2023/08/30 08:57:34;;;;;;;6.82;3.25;;;19.20;99.90;;;;;;5011222;28;20037;-51
2023/08/30 08:59:59;;;;;;;7.50;3.22;;;19.10;99.90;;;;;;5010500;28;20100;-54
2023/08/30 09:02:25;;;;;;;5.70;2.97;;;19.00;99.90;;;;;;5011076;28;20567;-53
2023/08/30 09:04:53;;;;;;;5.80;3.33;;;18.90;99.90;;;;;;5011424;28;20033;-54
2023/08/30 09:07:19;;;;;;;4.05;2.50;;;18.80;99.90;;;;;;5018944;28;20037;-52
2023/08/30 09:09:45;;;;;;;10.80;3.20;;;18.60;99.90;;;;;;5010058;28;20026;-51
2023/08/30 09:12:11;;;;;;;5.15;2.90;;;18.40;99.90;;;;;;5011882;28;20076;-55
2023/08/30 09:14:37;;;;;;;6.03;2.60;;;18.30;99.90;;;;;;5014106;28;20061;-53
2023/08/30 09:17:03;;;;;;;12.90;6.28;;;18.20;99.90;;;;;;5016447;28;20037;-53
2023/08/30 09:19:29;;;;;;;5.60;3.15;;;18.20;99.90;;;;;;5011974;28;20045;-52
2023/08/30 09:21:56;;;;;;;10.13;4.57;;;18.20;99.90;;;;;;5011360;28;20394;-51
2023/08/30 09:24:23;;;;;;;6.38;3.28;;;18.10;99.90;;;;;;5015047;28;20072;-55
2023/08/30 09:26:50;;;;;;;7.05;3.95;;;17.90;99.90;;;;;;5013910;28;20053;-51
2023/08/30 09:29:18;;;;;;;7.03;4.03;;;17.60;99.90;;;;;;5009733;28;20041;-55
2023/08/30 09:31:44;;;;;;;7.40;4.72;;;17.30;99.90;;;;;;5006837;28;20490;-53
2023/08/30 09:34:11;;;;;;;10.90;5.28;;;17.20;99.90;;;;;;5011316;28;20080;-52
2023/08/30 09:36:40;;;;;;;9.65;4.30;;;17.10;99.90;;;;;;5013884;28;20038;-50
2023/08/30 09:39:11;;;;;;;13.57;5.78;;;16.80;99.90;;;;;;5012655;28;20117;-50
2023/08/30 09:41:41;;;;;;;9.18;4.68;;;16.70;99.90;;;;;;5008231;28;20048;-54
2023/08/30 09:44:11;;;;;;;7.30;3.90;;;16.60;99.90;;;;;;5015927;28;20034;-53
2023/08/30 09:46:49;;;;;;;10.65;4.38;;;16.50;99.90;;;;;;5017801;28;20041;-52
2023/08/30 09:49:15;;;;;;;10.18;5.85;;;16.40;99.90;;;;;;5015062;28;20034;-54
2023/08/30 09:51:42;;;;;;;8.88;5.00;;;16.30;99.90;;;;;;4995298;28;20048;-51
2023/08/30 09:54:16;;;;;;;9.75;5.15;;;16.20;99.90;;;;;;5009376;28;20061;-50
2023/08/30 09:56:43;;;;;;;7.10;4.30;;;16.10;99.90;;;;;;5016210;28;20512;-52
2023/08/30 09:59:11;;;;;;;8.45;4.03;;;16.00;99.90;;;;;;5020022;28;20068;-50
2023/08/30 10:01:38;;;;;;;10.98;4.80;;;16.00;99.90;;;;;;5012787;28;20132;-53
2023/08/30 10:04:05;;;;;;;10.95;4.72;;;15.90;99.90;;;;;;5006959;28;20080;-50
2023/08/30 10:06:33;;;;;;;10.15;4.75;;;15.80;99.90;;;;;;5009485;28;20034;-50
2023/08/30 10:08:59;;;;;;;10.52;5.43;;;15.80;99.90;;;;;;5012242;28;20037;-51
2023/08/30 10:11:26;;;;;;;8.00;5.18;;;15.70;99.90;;;;;;4993418;28;20482;-53
2023/08/30 10:13:52;;;;;;;7.22;4.53;;;15.70;99.90;;;;;;5021159;28;20061;-51
2023/08/30 10:16:26;;;;;;;8.27;4.47;;;15.70;99.90;;;;;;5025933;28;20038;-50
2023/08/30 10:19:00;;;;;;;9.25;4.75;;;15.70;99.90;;;;;;5017111;28;20522;-53
2023/08/30 10:21:27;;;;;;;9.50;4.78;;;15.70;99.90;;;;;;5022541;28;20667;-55
2023/08/30 10:23:55;;;;;;;8.88;4.72;;;15.70;99.90;;;;;;5011336;28;20034;-52
2023/08/30 10:26:24;;;;;;;10.02;5.85;;;15.70;99.90;;;;;;5018476;28;20034;-55
2023/08/30 10:28:53;;;;;;;11.65;6.22;;;15.70;99.90;;;;;;5016031;28;20044;-53
2023/08/30 10:31:18;;;;;;;11.40;5.63;;;15.60;99.90;;;;;;5010729;28;20033;-54
2023/08/30 10:33:52;;;;;;;9.40;5.10;;;15.70;99.90;;;;;;5016188;28;20094;-54
2023/08/30 10:36:25;;;;;;;10.93;5.53;;;15.70;99.90;;;;;;5021207;28;20120;-54
2023/08/30 10:38:54;;;;;;;9.85;5.57;;;15.70;99.90;;;;;;5015645;28;20475;-53
2023/08/30 10:41:22;;;;;;;10.07;5.18;;;15.70;99.90;;;;;;5018654;28;20414;-55
2023/08/30 10:43:54;;;;;;;10.27;4.90;;;15.70;99.90;;;;;;5010189;28;20031;-52
2023/08/30 10:46:36;;;;;;;8.38;4.45;;;15.70;99.90;;;;;;5012080;28;20041;-54
2023/08/30 10:49:14;;;;;;;8.65;4.28;;;15.60;99.90;;;;;;5016549;28;20072;-52
2023/08/30 10:51:41;;;;;;;7.25;4.28;;;15.60;99.90;;;;;;4999929;28;20090;-49
2023/08/30 10:54:24;;;;;;;7.55;4.50;;;15.60;99.90;;;;;;5011619;28;20105;-54
2023/08/30 10:57:01;;;;;;;8.57;4.30;;;15.40;99.90;;;;;;5013554;28;20030;-52
2023/08/30 10:59:29;;;;;;;9.73;4.90;;;15.30;99.90;;;;;;5013393;28;20022;-53
2023/08/30 11:01:55;;;;;;;7.40;4.13;;;15.30;99.90;;;;;;5013854;28;20034;-54
2023/08/30 11:04:22;;;;;;;9.00;4.50;;;15.30;99.90;;;;;;5014079;28;20033;-54
2023/08/30 11:06:49;;;;;;;9.13;5.32;;;15.20;99.90;;;;;;5014104;28;20044;-54
2023/08/30 11:09:20;;;;;;;10.55;4.75;;;15.20;99.90;;;;;;5013985;28;20049;-53
2023/08/30 11:11:50;;;;;;;8.18;4.80;;;15.20;99.90;;;;;;5013876;28;20066;-54
2023/08/30 11:14:16;;;;;;;8.13;5.13;;;15.30;99.90;;;;;;5013785;28;20030;-53
2023/08/30 11:16:42;;;;;;;9.43;4.57;;;15.20;99.90;;;;;;5013951;28;20431;-54
2023/08/30 11:19:09;;;;;;;7.70;4.50;;;15.20;99.90;;;;;;5013665;28;20080;-53
2023/08/30 11:21:42;;;;;;;7.22;4.30;;;15.30;99.90;;;;;;5013585;28;20057;-54
2023/08/30 11:24:08;;;;;;;7.80;4.10;;;15.20;99.90;;;;;;5013207;28;20030;-54
2023/08/30 11:26:33;;;;;;;6.80;3.95;;;15.30;99.90;;;;;;5013743;28;20064;-54
2023/08/30 11:29:09;;;;;;;8.43;4.65;;;15.30;99.90;;;;;;5012872;28;20065;-50
2023/08/30 11:31:35;;;;;;;8.27;3.72;;;15.30;99.90;;;;;;5012463;28;20030;-53
2023/08/30 11:34:01;;;;;;;22.63;11.88;;;15.30;99.90;;;;;;5012998;28;20034;-51
2023/08/30 11:36:31;;;;;;;10.70;4.40;;;15.20;99.90;;;;;;5012958;28;20030;-53
2023/08/30 11:38:58;;;;;;;7.63;3.80;;;15.20;99.90;;;;;;5012671;28;20022;-50
2023/08/30 11:41:25;;;;;;;13.65;5.85;;;15.20;99.90;;;;;;5012523;28;20060;-54
2023/08/30 11:43:51;;;;;;;9.55;4.82;;;15.20;99.90;;;;;;5012747;28;20034;-50
2023/08/30 11:46:18;;;;;;;12.73;6.82;;;15.30;99.90;;;;;;5013144;28;20088;-53
2023/08/30 11:48:45;;;;;;;10.63;4.90;;;15.20;99.90;;;;;;4995364;28;20064;-52
2023/08/30 11:51:11;;;;;;;5.65;2.85;;;15.30;99.90;;;;;;5013275;28;20407;-53
2023/08/30 11:53:38;;;;;;;6.47;3.28;;;15.20;99.90;;;;;;5012945;28;20033;-52
2023/08/30 11:56:08;;;;;;;6.78;3.08;;;15.20;99.90;;;;;;5013096;28;20088;-54
2023/08/30 11:58:34;;;;;;;6.72;3.38;;;15.20;99.90;;;;;;5012984;28;20026;-53
2023/08/30 12:01:01;;;;;;;6.80;3.17;;;15.30;99.90;;;;;;5013045;28;20022;-53
2023/08/30 12:03:28;;;;;;;7.07;3.50;;;15.30;99.90;;;;;;5012775;28;20088;-54
2023/08/30 12:05:54;;;;;;;6.60;3.85;;;15.40;99.90;;;;;;5013083;28;20042;-54
2023/08/30 12:08:29;;;;;;;9.27;4.43;;;15.40;99.90;;;;;;5012812;28;20033;-55
2023/08/30 12:10:55;;;;;;;8.68;4.72;;;15.40;99.90;;;;;;5012844;28;20038;-52
2023/08/30 12:13:33;;;;;;;9.88;4.30;;;15.50;99.90;;;;;;5012480;28;20049;-49
2023/08/30 12:16:00;;;;;;;9.68;4.88;;;15.60;99.90;;;;;;5012736;28;20030;-50
2023/08/30 12:18:28;;;;;;;10.07;4.53;;;15.60;99.90;;;;;;4994928;28;20533;-54
2023/08/30 12:20:54;;;;;;;8.82;3.92;;;15.70;99.90;;;;;;5012614;28;20038;-52
2023/08/30 12:23:21;;;;;;;6.93;2.72;;;15.70;99.90;;;;;;5012318;28;20069;-52
2023/08/30 12:25:57;;;;;;;7.22;3.33;;;15.70;99.90;;;;;;5012427;28;20033;-50
2023/08/30 12:28:23;;;;;;;5.68;3.20;;;15.60;99.90;;;;;;5012241;28;20040;-54
2023/08/30 12:30:48;;;;;;;5.18;2.92;;;15.60;99.90;;;;;;5012480;28;20034;-54
2023/08/30 12:33:16;;;;;;;7.20;2.88;;;15.60;99.90;;;;;;5012220;28;20040;-54
2023/08/30 12:35:42;;;;;;;5.20;2.63;;;15.60;99.90;;;;;;5014819;28;20044;-55
2023/08/30 12:38:09;;;;;;;5.57;3.03;;;15.60;99.90;;;;;;5022020;28;20487;-54